sensor_id;sensor_type;location;lat;lon;timestamp;pressure;altitude;pressure_sealevel;temperature;humidity
15405;BME280;7801;48.124;11.590;2023-04-29T00:01:35;95138.72;;;12.15;100.00
15405;BME280;7801;48.124;11.590;2023-04-29T00:04:01;95133.88;;;12.17;100.00
15405;BME280;7801;48.124;11.590;2023-04-29T00:06:29;95137.19;;;12.22;100.00
15405;BME280;7801;48.124;11.590;2023-04-29T00:08:55;95142.81;;;12.29;100.00
15405;BME280;7801;48.124;11.590;2023-04-29T00:11:24;95129.03;;;12.27;100.00
15405;BME280;7801;48.124;11.590;2023-04-29T00:13:51;95130.00;;;12.31;100.00
15405;BME280;7801;48.124;11.590;2023-04-29T00:16:17;95138.91;;;12.27;100.00
15405;BME280;7801;48.124;11.590;2023-04-29T00:18:44;95136.56;;;12.25;100.00
15405;BME280;7801;48.124;11.590;2023-04-29T00:21:09;95137.78;;;12.19;100.00
15405;BME280;7801;48.124;11.590;2023-04-29T00:23:39;95128.72;;;12.20;100.00
15405;BME280;7801;48.124;11.590;2023-04-29T00:26:06;95129.94;;;12.14;100.00
15405;BME280;7801;48.124;11.590;2023-04-29T00:28:33;95126.19;;;12.15;100.00
15405;BME280;7801;48.124;11.590;2023-04-29T00:30:59;95126.62;;;12.00;100.00
15405;BME280;7801;48.124;11.590;2023-04-29T00:33:27;95127.59;;;12.13;100.00
15405;BME280;7801;48.124;11.590;2023-04-29T00:35:53;95120.88;;;12.15;100.00
15405;BME280;7801;48.124;11.590;2023-04-29T00:38:20;95122.94;;;12.18;100.00
15405;BME280;7801;48.124;11.590;2023-04-29T00:40:46;95128.59;;;12.25;100.00
15405;BME280;7801;48.124;11.590;2023-04-29T00:43:12;95127.62;;;12.21;100.00
15405;BME280;7801;48.124;11.590;2023-04-29T00:45:38;95124.03;;;12.17;100.00
15405;BME280;7801;48.124;11.590;2023-04-29T00:48:05;95132.59;;;12.14;100.00
15405;BME280;7801;48.124;11.590;2023-04-29T00:50:38;95122.44;;;12.16;100.00
15405;BME280;7801;48.124;11.590;2023-04-29T00:53:04;95128.88;;;12.15;100.00
15405;BME280;7801;48.124;11.590;2023-04-29T00:55:33;95119.97;;;12.28;100.00
15405;BME280;7801;48.124;11.590;2023-04-29T00:58:06;95119.09;;;12.42;100.00
15405;BME280;7801;48.124;11.590;2023-04-29T01:00:37;95116.69;;;12.31;100.00
15405;BME280;7801;48.124;11.590;2023-04-29T01:03:07;95115.13;;;12.30;100.00
15405;BME280;7801;48.124;11.590;2023-04-29T01:05:33;95116.22;;;12.29;100.00
15405;BME280;7801;48.124;11.590;2023-04-29T01:08:33;95114.38;;;12.38;100.00
15405;BME280;7801;48.124;11.590;2023-04-29T01:11:10;95115.63;;;12.32;100.00
15405;BME280;7801;48.124;11.590;2023-04-29T01:13:57;95116.09;;;12.34;100.00
15405;BME280;7801;48.124;11.590;2023-04-29T01:17:09;95114.66;;;12.28;100.00
15405;BME280;7801;48.124;11.590;2023-04-29T01:22:16;95107.63;;;12.32;100.00
15405;BME280;7801;48.124;11.590;2023-04-29T01:24:43;95113.59;;;12.38;100.00
15405;BME280;7801;48.124;11.590;2023-04-29T01:27:30;95107.50;;;12.37;100.00
15405;BME280;7801;48.124;11.590;2023-04-29T01:32:51;95108.09;;;12.34;100.00
15405;BME280;7801;48.124;11.590;2023-04-29T01:38:52;95117.31;;;12.20;100.00
15405;BME280;7801;48.124;11.590;2023-04-29T01:41:34;95110.25;;;12.15;100.00
15405;BME280;7801;48.124;11.590;2023-04-29T01:44:01;95114.81;;;12.23;100.00
15405;BME280;7801;48.124;11.590;2023-04-29T01:46:28;95111.84;;;12.33;100.00
15405;BME280;7801;48.124;11.590;2023-04-29T01:48:54;95119.34;;;12.23;100.00
15405;BME280;7801;48.124;11.590;2023-04-29T01:51:21;95114.03;;;12.31;100.00
15405;BME280;7801;48.124;11.590;2023-04-29T01:53:48;95117.13;;;12.16;100.00
15405;BME280;7801;48.124;11.590;2023-04-29T01:56:14;95115.59;;;12.24;100.00
15405;BME280;7801;48.124;11.590;2023-04-29T01:58:42;95112.78;;;12.29;100.00
15405;BME280;7801;48.124;11.590;2023-04-29T02:01:09;95105.59;;;12.29;100.00
15405;BME280;7801;48.124;11.590;2023-04-29T02:03:36;95110.94;;;12.38;100.00
15405;BME280;7801;48.124;11.590;2023-04-29T02:06:01;95100.25;;;12.29;100.00
15405;BME280;7801;48.124;11.590;2023-04-29T02:08:28;95106.03;;;12.14;100.00
15405;BME280;7801;48.124;11.590;2023-04-29T02:10:57;95107.63;;;12.24;100.00
15405;BME280;7801;48.124;11.590;2023-04-29T02:13:24;95104.31;;;12.27;100.00
15405;BME280;7801;48.124;11.590;2023-04-29T02:15:49;95107.16;;;12.30;100.00
15405;BME280;7801;48.124;11.590;2023-04-29T02:18:15;95110.13;;;12.29;100.00
15405;BME280;7801;48.124;11.590;2023-04-29T02:20:41;95104.97;;;12.32;100.00
15405;BME280;7801;48.124;11.590;2023-04-29T02:23:06;95113.47;;;12.43;100.00
15405;BME280;7801;48.124;11.590;2023-04-29T02:25:32;95112.78;;;12.20;100.00
15405;BME280;7801;48.124;11.590;2023-04-29T02:27:57;95108.25;;;12.29;100.00
15405;BME280;7801;48.124;11.590;2023-04-29T02:30:22;95106.97;;;12.27;100.00
15405;BME280;7801;48.124;11.590;2023-04-29T02:32:48;95109.69;;;12.35;100.00
15405;BME280;7801;48.124;11.590;2023-04-29T02:35:13;95106.09;;;12.40;100.00
15405;BME280;7801;48.124;11.590;2023-04-29T02:37:39;95104.03;;;12.28;100.00
15405;BME280;7801;48.124;11.590;2023-04-29T02:40:06;95109.34;;;12.28;100.00
15405;BME280;7801;48.124;11.590;2023-04-29T02:42:32;95103.41;;;12.31;100.00
15405;BME280;7801;48.124;11.590;2023-04-29T02:44:57;95106.69;;;12.28;100.00
15405;BME280;7801;48.124;11.590;2023-04-29T02:47:24;95111.06;;;12.33;100.00
15405;BME280;7801;48.124;11.590;2023-04-29T02:49:50;95105.28;;;12.31;100.00
15405;BME280;7801;48.124;11.590;2023-04-29T02:52:16;95111.06;;;12.33;100.00
15405;BME280;7801;48.124;11.590;2023-04-29T02:54:44;95103.09;;;12.24;100.00
15405;BME280;7801;48.124;11.590;2023-04-29T02:57:11;95116.53;;;12.19;100.00
15405;BME280;7801;48.124;11.590;2023-04-29T02:59:37;95112.62;;;12.25;100.00
15405;BME280;7801;48.124;11.590;2023-04-29T03:02:02;95117.34;;;12.37;100.00
15405;BME280;7801;48.124;11.590;2023-04-29T03:04:28;95119.22;;;12.36;100.00
15405;BME280;7801;48.124;11.590;2023-04-29T03:06:54;95123.06;;;12.13;100.00
15405;BME280;7801;48.124;11.590;2023-04-29T03:09:21;95120.91;;;12.24;100.00
15405;BME280;7801;48.124;11.590;2023-04-29T03:11:47;95120.75;;;12.29;100.00
15405;BME280;7801;48.124;11.590;2023-04-29T03:14:13;95126.38;;;12.27;100.00
15405;BME280;7801;48.124;11.590;2023-04-29T03:16:39;95121.25;;;12.31;100.00
15405;BME280;7801;48.124;11.590;2023-04-29T03:19:04;95124.06;;;12.26;100.00
15405;BME280;7801;48.124;11.590;2023-04-29T03:21:29;95126.25;;;12.32;100.00
15405;BME280;7801;48.124;11.590;2023-04-29T03:23:56;95121.13;;;12.45;100.00
15405;BME280;7801;48.124;11.590;2023-04-29T03:26:23;95112.69;;;12.43;100.00
15405;BME280;7801;48.124;11.590;2023-04-29T03:28:50;95114.81;;;12.32;100.00
15405;BME280;7801;48.124;11.590;2023-04-29T03:31:20;95123.75;;;12.36;100.00
15405;BME280;7801;48.124;11.590;2023-04-29T03:33:48;95118.75;;;12.34;100.00
15405;BME280;7801;48.124;11.590;2023-04-29T03:36:15;95114.81;;;12.32;100.00
15405;BME280;7801;48.124;11.590;2023-04-29T03:38:41;95118.75;;;12.34;100.00
15405;BME280;7801;48.124;11.590;2023-04-29T03:41:06;95120.63;;;12.34;100.00
15405;BME280;7801;48.124;11.590;2023-04-29T03:43:32;95125.59;;;12.27;100.00
15405;BME280;7801;48.124;11.590;2023-04-29T03:45:58;95114.87;;;12.41;100.00
15405;BME280;7801;48.124;11.590;2023-04-29T03:48:23;95117.38;;;12.46;100.00
15405;BME280;7801;48.124;11.590;2023-04-29T03:50:51;95115.66;;;12.50;100.00
15405;BME280;7801;48.124;11.590;2023-04-29T03:53:21;95117.19;;;12.33;100.00
15405;BME280;7801;48.124;11.590;2023-04-29T03:55:47;95116.56;;;12.36;100.00
15405;BME280;7801;48.124;11.590;2023-04-29T03:58:14;95120.94;;;12.32;100.00
15405;BME280;7801;48.124;11.590;2023-04-29T04:00:39;95117.22;;;12.51;100.00
15405;BME280;7801;48.124;11.590;2023-04-29T04:03:05;95121.75;;;12.50;100.00
15405;BME280;7801;48.124;11.590;2023-04-29T04:05:32;95121.88;;;12.36;100.00
15405;BME280;7801;48.124;11.590;2023-04-29T04:07:59;95123.16;;;12.48;100.00
15405;BME280;7801;48.124;11.590;2023-04-29T04:10:26;95124.41;;;12.50;100.00
15405;BME280;7801;48.124;11.590;2023-04-29T04:12:52;95123.16;;;12.48;100.00
15405;BME280;7801;48.124;11.590;2023-04-29T04:15:19;95130.78;;;12.32;100.00
15405;BME280;7801;48.124;11.590;2023-04-29T04:17:45;95130.66;;;12.37;100.00
15405;BME280;7801;48.124;11.590;2023-04-29T04:20:11;95133.00;;;12.38;100.00
15405;BME280;7801;48.124;11.590;2023-04-29T04:22:37;95132.41;;;12.42;100.00
15405;BME280;7801;48.124;11.590;2023-04-29T04:25:04;95130.19;;;12.35;100.00
15405;BME280;7801;48.124;11.590;2023-04-29T04:27:30;95134.12;;;12.46;100.00
15405;BME280;7801;48.124;11.590;2023-04-29T04:29:55;95132.41;;;12.42;100.00
15405;BME280;7801;48.124;11.590;2023-04-29T04:32:21;95143.03;;;12.42;100.00
15405;BME280;7801;48.124;11.590;2023-04-29T04:34:49;95138.63;;;12.37;100.00
15405;BME280;7801;48.124;11.590;2023-04-29T04:37:15;95140.34;;;12.33;100.00
15405;BME280;7801;48.124;11.590;2023-04-29T04:39:40;95144.13;;;12.41;100.00
15405;BME280;7801;48.124;11.590;2023-04-29T04:42:07;95145.09;;;12.45;100.00
15405;BME280;7801;48.124;11.590;2023-04-29T04:44:33;95141.94;;;12.51;100.00
15405;BME280;7801;48.124;11.590;2023-04-29T04:46:59;95138.97;;;12.53;100.00
15405;BME280;7801;48.124;11.590;2023-04-29T04:49:29;95147.31;;;12.60;100.00
15405;BME280;7801;48.124;11.590;2023-04-29T04:51:56;95145.75;;;12.59;100.00
15405;BME280;7801;48.124;11.590;2023-04-29T04:54:23;95145.91;;;12.62;100.00
15405;BME280;7801;48.124;11.590;2023-04-29T04:56:48;95149.03;;;12.64;100.00
15405;BME280;7801;48.124;11.590;2023-04-29T04:59:16;95152.00;;;12.63;100.00
15405;BME280;7801;48.124;11.590;2023-04-29T05:01:42;95153.84;;;12.54;100.00
15405;BME280;7801;48.124;11.590;2023-04-29T05:04:07;95149.81;;;12.65;100.00
15405;BME280;7801;48.124;11.590;2023-04-29T05:06:33;95154.19;;;12.61;100.00
15405;BME280;7801;48.124;11.590;2023-04-29T05:08:58;95157.16;;;12.59;100.00
15405;BME280;7801;48.124;11.590;2023-04-29T05:11:23;95156.69;;;12.57;100.00
15405;BME280;7801;48.124;11.590;2023-04-29T05:13:50;95152.00;;;12.71;100.00
15405;BME280;7801;48.124;11.590;2023-04-29T05:16:17;95152.19;;;12.75;100.00
15405;BME280;7801;48.124;11.590;2023-04-29T05:18:43;95157.38;;;12.80;100.00
15405;BME280;7801;48.124;11.590;2023-04-29T05:21:11;95155.66;;;12.84;100.00
15405;BME280;7801;48.124;11.590;2023-04-29T05:23:42;95167.09;;;12.85;100.00
15405;BME280;7801;48.124;11.590;2023-04-29T05:26:09;95162.72;;;12.97;100.00
15405;BME280;7801;48.124;11.590;2023-04-29T05:28:36;95162.72;;;12.97;100.00
15405;BME280;7801;48.124;11.590;2023-04-29T05:31:10;95154.25;;;13.04;100.00
15405;BME280;7801;48.124;11.590;2023-04-29T05:33:37;95167.41;;;13.00;100.00
15405;BME280;7801;48.124;11.590;2023-04-29T05:36:02;95173.69;;;13.04;100.00
15405;BME280;7801;48.124;11.590;2023-04-29T05:38:29;95179.00;;;13.04;100.00
15405;BME280;7801;48.124;11.590;2023-04-29T05:40:57;95180.12;;;13.03;100.00
15405;BME280;7801;48.124;11.590;2023-04-29T05:43:25;95183.53;;;13.13;100.00
15405;BME280;7801;48.124;11.590;2023-04-29T05:45:53;95179.00;;;13.13;100.00
15405;BME280;7801;48.124;11.590;2023-04-29T05:48:23;95177.13;;;13.05;100.00
15405;BME280;7801;48.124;11.590;2023-04-29T05:50:53;95185.28;;;13.08;100.00
15405;BME280;7801;48.124;11.590;2023-04-29T05:53:20;95182.28;;;13.10;100.00
15405;BME280;7801;48.124;11.590;2023-04-29T05:55:47;95180.88;;;13.13;100.00
15405;BME280;7801;48.124;11.590;2023-04-29T05:58:16;95191.75;;;13.16;100.00
15405;BME280;7801;48.124;11.590;2023-04-29T06:00:45;95190.66;;;13.26;100.00
15405;BME280;7801;48.124;11.590;2023-04-29T06:03:16;95195.38;;;13.29;100.00
15405;BME280;7801;48.124;11.590;2023-04-29T06:05:43;95193.16;;;13.31;100.00
15405;BME280;7801;48.124;11.590;2023-04-29T06:08:10;95199.75;;;13.25;100.00
15405;BME280;7801;48.124;11.590;2023-04-29T06:10:36;95193.47;;;13.47;100.00
15405;BME280;7801;48.124;11.590;2023-04-29T06:13:03;95197.22;;;13.54;100.00
15405;BME280;7801;48.124;11.590;2023-04-29T06:15:30;95203.19;;;13.51;100.00
15405;BME280;7801;48.124;11.590;2023-04-29T06:17:56;95211.97;;;13.52;100.00
15405;BME280;7801;48.124;11.590;2023-04-29T06:20:23;95213.41;;;13.49;100.00
15405;BME280;7801;48.124;11.590;2023-04-29T06:22:49;95214.63;;;13.60;100.00
15405;BME280;7801;48.124;11.590;2023-04-29T06:25:17;95218.84;;;13.53;100.00
15405;BME280;7801;48.124;11.590;2023-04-29T06:27:48;95215.09;;;13.62;100.00
15405;BME280;7801;48.124;11.590;2023-04-29T06:30:14;95210.56;;;13.71;100.00
15405;BME280;7801;48.124;11.590;2023-04-29T06:32:40;95223.25;;;13.74;100.00
15405;BME280;7801;48.124;11.590;2023-04-29T06:35:10;95225.75;;;13.80;100.00
15405;BME280;7801;48.124;11.590;2023-04-29T06:37:37;95225.75;;;13.80;100.00
15405;BME280;7801;48.124;11.590;2023-04-29T06:40:05;95235.31;;;13.81;100.00
15405;BME280;7801;48.124;11.590;2023-04-29T06:42:34;95234.06;;;13.78;100.00
15405;BME280;7801;48.124;11.590;2023-04-29T06:45:01;95226.88;;;13.70;100.00
15405;BME280;7801;48.124;11.590;2023-04-29T06:47:31;95233.44;;;13.72;100.00
15405;BME280;7801;48.124;11.590;2023-04-29T06:49:57;95231.72;;;13.76;100.00
15405;BME280;7801;48.124;11.590;2023-04-29T06:52:24;95235.16;;;13.86;100.00
15405;BME280;7801;48.124;11.590;2023-04-29T06:55:10;95231.06;;;13.80;100.00
15405;BME280;7801;48.124;11.590;2023-04-29T06:57:38;95232.03;;;13.84;100.00
15405;BME280;7801;48.124;11.590;2023-04-29T07:00:04;95238.09;;;14.01;100.00
15405;BME280;7801;48.124;11.590;2023-04-29T07:02:32;95237.00;;;14.11;100.00
15405;BME280;7801;48.124;11.590;2023-04-29T07:05:00;95243.41;;;14.27;100.00
15405;BME280;7801;48.124;11.590;2023-04-29T07:07:27;95238.53;;;14.21;100.00
15405;BME280;7801;48.124;11.590;2023-04-29T07:09:54;95240.72;;;14.27;100.00
15405;BME280;7801;48.124;11.590;2023-04-29T07:12:21;95236.03;;;14.24;100.00
15405;BME280;7801;48.124;11.590;2023-04-29T07:14:48;95238.03;;;14.44;99.64
15405;BME280;7801;48.124;11.590;2023-04-29T07:17:13;95234.72;;;14.48;98.89
15405;BME280;7801;48.124;11.590;2023-04-29T07:19:40;95243.78;;;14.64;98.63
15405;BME280;7801;48.124;11.590;2023-04-29T07:22:06;95235.44;;;14.65;97.64
15405;BME280;7801;48.124;11.590;2023-04-29T07:24:34;95241.97;;;14.76;97.72
15405;BME280;7801;48.124;11.590;2023-04-29T07:27:00;95240.84;;;14.86;97.54
15405;BME280;7801;48.124;11.590;2023-04-29T07:29:26;95239.91;;;14.82;96.58
15405;BME280;7801;48.124;11.590;2023-04-29T07:31:57;95241.00;;;14.90;96.22
15405;BME280;7801;48.124;11.590;2023-04-29T07:34:23;95245.84;;;14.96;96.08
15405;BME280;7801;48.124;11.590;2023-04-29T07:36:49;95249.16;;;14.93;95.91
15405;BME280;7801;48.124;11.590;2023-04-29T07:39:16;95247.03;;;15.07;95.11
15405;BME280;7801;48.124;11.590;2023-04-29T07:41:44;95252.37;;;15.07;95.06
15405;BME280;7801;48.124;11.590;2023-04-29T07:44:09;95249.38;;;15.09;94.73
15405;BME280;7801;48.124;11.590;2023-04-29T07:46:36;95256.12;;;15.06;94.79
15405;BME280;7801;48.124;11.590;2023-04-29T07:49:06;95248.34;;;15.22;94.05
15405;BME280;7801;48.124;11.590;2023-04-29T07:51:31;95248.41;;;15.13;94.39
15405;BME280;7801;48.124;11.590;2023-04-29T07:53:58;95245.41;;;15.15;94.08
15405;BME280;7801;48.124;11.590;2023-04-29T07:56:24;95251.87;;;15.35;93.82
15405;BME280;7801;48.124;11.590;2023-04-29T07:58:51;95253.69;;;15.43;93.50
15405;BME280;7801;48.124;11.590;2023-04-29T08:01:17;95259.22;;;15.67;92.01
15405;BME280;7801;48.124;11.590;2023-04-29T08:03:42;95253.88;;;15.67;91.80
15405;BME280;7801;48.124;11.590;2023-04-29T08:06:09;95262.53;;;15.64;90.64
15405;BME280;7801;48.124;11.590;2023-04-29T08:08:35;95254.28;;;15.57;91.85
15405;BME280;7801;48.124;11.590;2023-04-29T08:11:01;95254.75;;;15.51;91.77
15405;BME280;7801;48.124;11.590;2023-04-29T08:13:49;95262.22;;;15.66;90.79
15405;BME280;7801;48.124;11.590;2023-04-29T08:16:16;95249.44;;;15.71;89.27
15405;BME280;7801;48.124;11.590;2023-04-29T08:18:44;95250.34;;;15.75;89.99
15405;BME280;7801;48.124;11.590;2023-04-29T08:21:14;95251.47;;;15.74;88.17
15405;BME280;7801;48.124;11.590;2023-04-29T08:27:02;95247.38;;;15.56;88.67
15405;BME280;7801;48.124;11.590;2023-04-29T08:32:49;95255.56;;;15.22;91.85
15405;BME280;7801;48.124;11.590;2023-04-29T08:35:16;95256.34;;;15.22;91.03
15405;BME280;7801;48.124;11.590;2023-04-29T08:37:43;95250.97;;;15.31;91.27
15405;BME280;7801;48.124;11.590;2023-04-29T08:40:09;95260.72;;;15.27;89.47
15405;BME280;7801;48.124;11.590;2023-04-29T08:42:38;95260.84;;;15.09;89.81
15405;BME280;7801;48.124;11.590;2023-04-29T08:45:05;95261.34;;;15.03;90.78
15405;BME280;7801;48.124;11.590;2023-04-29T08:47:32;95257.41;;;15.00;90.51
15405;BME280;7801;48.124;11.590;2023-04-29T08:50:07;95253.28;;;15.11;90.08
15405;BME280;7801;48.124;11.590;2023-04-29T08:52:33;95248.28;;;15.31;90.24
15405;BME280;7801;48.124;11.590;2023-04-29T08:55:19;95248.34;;;15.43;89.41
15405;BME280;7801;48.124;11.590;2023-04-29T08:57:48;95253.00;;;15.55;88.77
15405;BME280;7801;48.124;11.590;2023-04-29T09:00:15;95253.03;;;15.75;87.17
15405;BME280;7801;48.124;11.590;2023-04-29T09:02:50;95242.56;;;15.82;86.73
15405;BME280;7801;48.124;11.590;2023-04-29T09:05:20;95241.06;;;15.94;84.59
15405;BME280;7801;48.124;11.590;2023-04-29T09:07:49;95247.44;;;16.01;83.93
15405;BME280;7801;48.124;11.590;2023-04-29T09:10:17;95242.88;;;16.02;83.78
15405;BME280;7801;48.124;11.590;2023-04-29T09:12:43;95250.56;;;16.03;83.16
15405;BME280;7801;48.124;11.590;2023-04-29T09:15:11;95248.00;;;16.07;82.52
15405;BME280;7801;48.124;11.590;2023-04-29T09:23:01;95246.00;;;16.04;81.59
15405;BME280;7801;48.124;11.590;2023-04-29T09:25:32;95245.50;;;15.90;83.72
15405;BME280;7801;48.124;11.590;2023-04-29T09:28:16;95243.41;;;15.95;83.84
15405;BME280;7801;48.124;11.590;2023-04-29T09:30:47;95246.41;;;15.94;82.13
15405;BME280;7801;48.124;11.590;2023-04-29T09:33:13;95240.50;;;16.00;80.77
15405;BME280;7801;48.124;11.590;2023-04-29T09:35:40;95240.16;;;15.90;81.37
15405;BME280;7801;48.124;11.590;2023-04-29T09:38:12;95239.31;;;15.98;81.30
15405;BME280;7801;48.124;11.590;2023-04-29T09:40:41;95247.44;;;16.01;80.51
15405;BME280;7801;48.124;11.590;2023-04-29T09:43:15;95245.34;;;16.07;80.81
15405;BME280;7801;48.124;11.590;2023-04-29T09:45:48;95244.22;;;16.08;80.53
15405;BME280;7801;48.124;11.590;2023-04-29T09:48:15;95243.44;;;16.07;79.86
15405;BME280;7801;48.124;11.590;2023-04-29T09:50:43;95248.22;;;16.02;78.93
15405;BME280;7801;48.124;11.590;2023-04-29T09:53:27;95261.16;;;16.00;78.55
15405;BME280;7801;48.124;11.590;2023-04-29T09:56:01;95258.03;;;15.98;79.06
15405;BME280;7801;48.124;11.590;2023-04-29T09:58:30;95255.13;;;16.03;81.03
15405;BME280;7801;48.124;11.590;2023-04-29T10:00:59;95258.31;;;16.17;79.93
15405;BME280;7801;48.124;11.590;2023-04-29T10:03:37;95241.62;;;16.32;78.60
15405;BME280;7801;48.124;11.590;2023-04-29T10:06:04;95234.97;;;16.50;77.22
15405;BME280;7801;48.124;11.590;2023-04-29T10:08:36;95237.00;;;16.66;76.08
15405;BME280;7801;48.124;11.590;2023-04-29T10:11:04;95236.47;;;16.84;75.60
15405;BME280;7801;48.124;11.590;2023-04-29T10:14:37;95235.25;;;16.94;74.30
15405;BME280;7801;48.124;11.590;2023-04-29T10:17:17;95226.62;;;17.13;73.96
15405;BME280;7801;48.124;11.590;2023-04-29T10:20:03;95226.97;;;17.24;74.21
15405;BME280;7801;48.124;11.590;2023-04-29T10:22:45;95228.44;;;17.21;73.38
15405;BME280;7801;48.124;11.590;2023-04-29T10:25:14;95243.94;;;17.15;75.38
15405;BME280;7801;48.124;11.590;2023-04-29T10:27:45;95247.31;;;17.00;77.79
15405;BME280;7801;48.124;11.590;2023-04-29T10:30:17;95240.84;;;16.77;78.49
15405;BME280;7801;48.124;11.590;2023-04-29T10:32:47;95239.25;;;16.64;79.51
15405;BME280;7801;48.124;11.590;2023-04-29T10:35:27;95244.69;;;16.55;79.66
15405;BME280;7801;48.124;11.590;2023-04-29T10:37:56;95240.06;;;16.43;80.35
15405;BME280;7801;48.124;11.590;2023-04-29T10:40:52;95248.88;;;16.32;80.88
15405;BME280;7801;48.124;11.590;2023-04-29T10:43:25;95243.66;;;16.35;80.90
15405;BME280;7801;48.124;11.590;2023-04-29T10:48:47;95238.75;;;16.37;81.86
15405;BME280;7801;48.124;11.590;2023-04-29T10:51:45;95232.81;;;16.44;80.69
15405;BME280;7801;48.124;11.590;2023-04-29T10:54:18;95234.31;;;16.54;78.59
15405;BME280;7801;48.124;11.590;2023-04-29T10:56:51;95227.09;;;16.66;75.39
15405;BME280;7801;48.124;11.590;2023-04-29T11:01:57;95217.16;;;16.91;75.37
15405;BME280;7801;48.124;11.590;2023-04-29T11:04:24;95222.50;;;16.91;73.59
15405;BME280;7801;48.124;11.590;2023-04-29T11:06:52;95225.22;;;16.79;74.79
15405;BME280;7801;48.124;11.590;2023-04-29T11:12:02;95214.50;;;16.79;75.18
15405;BME280;7801;48.124;11.590;2023-04-29T11:14:31;95219.72;;;16.88;74.33
15405;BME280;7801;48.124;11.590;2023-04-29T11:17:02;95228.09;;;16.98;72.86
15405;BME280;7801;48.124;11.590;2023-04-29T11:19:33;95229.66;;;16.99;72.55
15405;BME280;7801;48.124;11.590;2023-04-29T11:24:35;95230.09;;;16.89;71.97
15405;BME280;7801;48.124;11.590;2023-04-29T11:27:03;95228.53;;;16.88;71.82
15405;BME280;7801;48.124;11.590;2023-04-29T11:29:32;95230.34;;;16.96;70.75
15405;BME280;7801;48.124;11.590;2023-04-29T11:32:00;95222.28;;;16.96;71.68
15405;BME280;7801;48.124;11.590;2023-04-29T11:34:27;95226.88;;;16.96;69.63
15405;BME280;7801;48.124;11.590;2023-04-29T11:36:52;95233.22;;;16.91;69.74
15405;BME280;7801;48.124;11.590;2023-04-29T11:39:20;95238.03;;;16.86;69.84
15405;BME280;7801;48.124;11.590;2023-04-29T11:41:45;95241.50;;;16.86;69.60
15405;BME280;7801;48.124;11.590;2023-04-29T11:44:12;95231.88;;;16.85;70.31
15405;BME280;7801;48.124;11.590;2023-04-29T11:46:39;95238.37;;;16.96;69.67
15405;BME280;7801;48.124;11.590;2023-04-29T11:49:06;95240.38;;;16.87;71.25
15405;BME280;7801;48.124;11.590;2023-04-29T11:51:32;95231.69;;;16.78;71.08
15405;BME280;7801;48.124;11.590;2023-04-29T11:53:58;95233.25;;;16.79;70.77
15405;BME280;7801;48.124;11.590;2023-04-29T11:56:26;95235.94;;;16.79;68.49
15405;BME280;7801;48.124;11.590;2023-04-29T11:58:57;95237.03;;;16.90;68.03
15405;BME280;7801;48.124;11.590;2023-04-29T12:01:24;95236.34;;;17.05;68.76
15405;BME280;7801;48.124;11.590;2023-04-29T12:03:57;95248.09;;;17.13;66.57
15405;BME280;7801;48.124;11.590;2023-04-29T12:06:29;95237.47;;;17.16;65.24
15405;BME280;7801;48.124;11.590;2023-04-29T12:08:59;95248.62;;;17.31;66.04
15405;BME280;7801;48.124;11.590;2023-04-29T12:11:27;95250.06;;;17.28;64.21
15405;BME280;7801;48.124;11.590;2023-04-29T12:13:55;95243.94;;;17.15;65.42
15405;BME280;7801;48.124;11.590;2023-04-29T12:16:26;95239.16;;;17.21;63.60
15405;BME280;7801;48.124;11.590;2023-04-29T12:18:58;95238.37;;;17.21;64.42
15405;BME280;7801;48.124;11.590;2023-04-29T12:21:28;95237.44;;;17.41;63.66
15405;BME280;7801;48.124;11.590;2023-04-29T12:24:00;95242.81;;;17.41;62.78
15405;BME280;7801;48.124;11.590;2023-04-29T12:26:30;95239.47;;;17.32;64.27
15405;BME280;7801;48.124;11.590;2023-04-29T12:28:59;95241.69;;;17.30;62.57
15405;BME280;7801;48.124;11.590;2023-04-29T12:31:35;95240.91;;;17.29;62.13
15405;BME280;7801;48.124;11.590;2023-04-29T12:34:04;95238.25;;;17.17;63.83
15405;BME280;7801;48.124;11.590;2023-04-29T12:36:40;95239.72;;;17.14;62.21
15405;BME280;7801;48.124;11.590;2023-04-29T12:39:06;95246.41;;;17.08;63.70
15405;BME280;7801;48.124;11.590;2023-04-29T12:41:40;95239.38;;;17.16;62.67
15405;BME280;7801;48.124;11.590;2023-04-29T12:44:07;95242.12;;;17.32;62.87
15405;BME280;7801;48.124;11.590;2023-04-29T12:46:54;95249.50;;;17.35;62.54
15405;BME280;7801;48.124;11.590;2023-04-29T12:49:23;95245.03;;;17.39;63.86
15405;BME280;7801;48.124;11.590;2023-04-29T12:51:51;95255.97;;;17.46;62.21
15405;BME280;7801;48.124;11.590;2023-04-29T12:54:18;95248.41;;;17.24;63.17
15405;BME280;7801;48.124;11.590;2023-04-29T12:56:45;95258.13;;;17.28;63.26
15405;BME280;7801;48.124;11.590;2023-04-29T12:59:13;95256.47;;;17.24;63.06
15405;BME280;7801;48.124;11.590;2023-04-29T13:01:39;95251.19;;;17.27;61.99
15405;BME280;7801;48.124;11.590;2023-04-29T13:04:04;95258.25;;;17.20;62.59
15405;BME280;7801;48.124;11.590;2023-04-29T13:06:39;95243.63;;;17.17;62.36
15405;BME280;7801;48.124;11.590;2023-04-29T13:09:08;95250.44;;;17.14;62.23
15405;BME280;7801;48.124;11.590;2023-04-29T13:11:38;95250.88;;;17.16;62.14
15405;BME280;7801;48.124;11.590;2023-04-29T13:14:05;95245.75;;;17.11;62.37
15405;BME280;7801;48.124;11.590;2023-04-29T13:16:33;95238.03;;;17.10;63.22
15405;BME280;7801;48.124;11.590;2023-04-29T13:19:00;95239.38;;;17.16;62.40
15405;BME280;7801;48.124;11.590;2023-04-29T13:21:27;95248.88;;;17.13;62.20
15405;BME280;7801;48.124;11.590;2023-04-29T13:23:53;95252.09;;;17.19;62.69
15405;BME280;7801;48.124;11.590;2023-04-29T13:26:20;95250.66;;;17.22;61.70
15405;BME280;7801;48.124;11.590;2023-04-29T13:28:48;95250.66;;;17.22;60.24
15405;BME280;7801;48.124;11.590;2023-04-29T13:31:26;95247.97;;;17.22;60.32
15405;BME280;7801;48.124;11.590;2023-04-29T13:37:36;95246.41;;;17.21;61.20
15405;BME280;7801;48.124;11.590;2023-04-29T13:40:04;95239.72;;;17.14;61.29